Time;durP1;ratioP1;P1;durP2;ratioP2;P2;SDS_P1;SDS_P2;PMS_P1;PMS_P2;Temp;Humidity;BMP_temperature;BMP_pressure;BME280_temperature;BME280_humidity;BME280_pressure;Samples;Min_cycle;Max_cycle;Signal;HPM_P1;HPM_P2
2022/06/09 00:00:01;;;;;;;105.10;41.50;;;14.30;99.90;;;;;;5033361;28;20112;-80
2022/06/09 00:02:30;;;;;;;120.50;45.28;;;14.30;99.90;;;;;;5032180;28;20050;-80
2022/06/09 00:04:58;;;;;;;123.40;46.60;;;14.30;99.90;;;;;;5032481;28;20060;-80
2022/06/09 00:07:25;;;;;;;114.10;45.72;;;14.30;99.90;;;;;;5033438;28;20539;-80
2022/06/09 00:09:58;;;;;;;116.53;45.72;;;14.20;99.90;;;;;;5033505;28;20103;-80
2022/06/09 00:12:25;;;;;;;116.93;46.45;;;14.30;99.90;;;;;;5032546;28;20550;-80
2022/06/09 00:14:50;;;;;;;117.45;45.42;;;14.30;99.90;;;;;;5033534;28;20045;-80
2022/06/09 00:17:17;;;;;;;108.35;44.40;;;14.30;99.90;;;;;;5033401;28;20046;-80
2022/06/09 00:19:44;;;;;;;111.45;45.40;;;14.30;99.90;;;;;;5036526;28;20389;-80
2022/06/09 00:22:10;;;;;;;104.47;44.05;;;14.30;99.90;;;;;;5037295;28;20546;-80
2022/06/09 00:24:35;;;;;;;107.70;43.58;;;14.30;99.90;;;;;;5052666;28;20560;-80
2022/06/09 00:27:01;;;;;;;108.70;44.08;;;14.30;99.90;;;;;;5035877;28;20128;-80
2022/06/09 00:29:27;;;;;;;105.32;41.85;;;14.30;99.90;;;;;;5037290;28;20042;-80
2022/06/09 00:31:53;;;;;;;103.95;39.30;;;14.30;99.90;;;;;;5037094;28;20053;-80
2022/06/09 00:34:18;;;;;;;98.68;37.45;;;14.30;99.90;;;;;;5037291;28;20503;-80
2022/06/09 00:36:44;;;;;;;96.72;37.83;;;14.20;99.90;;;;;;5036825;28;20039;-80
2022/06/09 00:39:10;;;;;;;103.32;39.72;;;14.20;99.90;;;;;;5037082;28;20132;-80
2022/06/09 00:41:43;;;;;;;104.05;40.25;;;14.20;99.90;;;;;;5035604;28;20049;-80
2022/06/09 00:44:22;;;;;;;99.43;38.10;;;14.30;99.90;;;;;;5035438;28;20091;-80
2022/06/09 00:46:54;;;;;;;95.72;36.92;;;14.20;99.90;;;;;;5035891;28;20052;-80
2022/06/09 00:49:50;;;;;;;82.88;32.45;;;14.20;99.90;;;;;;5035894;28;20053;-80
2022/06/09 00:52:19;;;;;;;75.53;30.63;;;14.20;99.90;;;;;;5032345;28;20103;-80
2022/06/09 00:54:52;;;;;;;79.70;30.85;;;14.20;99.90;;;;;;5035682;28;20103;-80
2022/06/09 00:57:34;;;;;;;87.43;31.17;;;14.20;99.90;;;;;;5036866;28;20477;-80
2022/06/09 01:00:07;;;;;;;92.60;33.38;;;14.20;99.90;;;;;;5036764;28;20060;-80
2022/06/09 01:02:33;;;;;;;;;;;14.20;99.90;;;;;;5036831;28;20034;-80
2022/06/09 01:05:02;;;;;;;100.93;39.10;;;14.10;99.90;;;;;;5035237;28;20352;-80
2022/06/09 01:07:35;;;;;;;103.15;42.28;;;14.20;99.90;;;;;;5035088;28;20053;-80
2022/06/09 01:10:01;;;;;;;;;;;14.20;99.90;;;;;;5036987;28;20083;-80
2022/06/09 01:12:29;;;;;;;114.30;42.65;;;14.20;99.90;;;;;;5035468;28;20000;-80
2022/06/09 01:15:01;;;;;;;107.13;40.92;;;14.20;99.90;;;;;;5036191;28;20124;-80
2022/06/09 01:17:30;;;;;;;106.60;40.42;;;14.20;99.90;;;;;;5034913;28;20049;-80
2022/06/09 01:20:04;;;;;;;108.47;41.75;;;14.20;99.90;;;;;;5036319;28;20052;-80
2022/06/09 01:22:51;;;;;;;104.97;40.03;;;14.20;99.90;;;;;;5036328;28;20069;-80
2022/06/09 01:25:54;;;;;;;101.90;39.38;;;14.10;99.90;;;;;;5036724;28;20084;-80
2022/06/09 01:28:28;;;;;;;109.43;39.17;;;14.20;99.90;;;;;;5034892;28;20057;-79
2022/06/09 01:30:56;;;;;;;107.75;39.35;;;14.10;99.90;;;;;;5036017;28;20060;-80
2022/06/09 01:33:44;;;;;;;98.75;36.67;;;14.10;99.90;;;;;;5034782;28;20045;-79
2022/06/09 01:36:36;;;;;;;102.30;36.55;;;14.10;99.90;;;;;;5035708;28;20571;-80
2022/06/09 01:39:05;;;;;;;114.35;38.40;;;14.10;99.90;;;;;;5036001;28;20187;-80
2022/06/09 01:41:31;;;;;;;95.40;35.03;;;14.20;99.90;;;;;;5035963;28;20095;-80
2022/06/09 01:43:57;;;;;;;88.78;32.53;;;14.20;99.90;;;;;;5035588;28;20049;-80
2022/06/09 01:46:31;;;;;;;83.88;30.75;;;14.10;99.90;;;;;;5035833;28;20049;-80
2022/06/09 01:49:19;;;;;;;75.65;29.42;;;14.10;99.90;;;;;;5034672;28;20049;-80
2022/06/09 01:51:47;;;;;;;56.28;23.23;;;14.10;99.90;;;;;;5035775;28;20037;-80
2022/06/09 01:54:25;;;;;;;55.70;22.42;;;14.00;99.90;;;;;;5034636;28;20054;-80
2022/06/09 01:57:18;;;;;;;59.55;22.38;;;14.00;99.90;;;;;;5036005;28;20041;-80
2022/06/09 01:59:50;;;;;;;71.78;27.10;;;14.00;99.90;;;;;;5035621;28;20038;-80
2022/06/09 02:02:21;;;;;;;66.47;27.43;;;14.00;99.90;;;;;;5034338;28;20068;-80
2022/06/09 02:04:58;;;;;;;81.68;30.60;;;14.00;99.90;;;;;;5034521;28;20520;-80
2022/06/09 02:07:26;;;;;;;86.22;30.75;;;14.00;99.90;;;;;;5035469;28;20060;-80
2022/06/09 02:09:54;;;;;;;77.78;27.77;;;14.00;99.90;;;;;;5034300;28;20107;-81
2022/06/09 02:12:24;;;;;;;75.93;27.67;;;14.00;99.90;;;;;;5034100;28;20041;-80
2022/06/09 02:14:56;;;;;;;80.10;30.33;;;14.00;99.90;;;;;;5035226;28;20526;-80
2022/06/09 02:17:21;;;;;;;69.50;25.83;;;14.00;99.90;;;;;;5035233;28;20038;-80
2022/06/09 02:19:50;;;;;;;53.80;21.90;;;14.00;99.90;;;;;;5034999;28;20040;-80
2022/06/09 02:22:16;;;;;;;45.03;18.05;;;14.00;99.90;;;;;;5033794;28;20052;-80
2022/06/09 02:24:41;;;;;;;36.33;16.42;;;13.90;99.90;;;;;;5035148;28;20041;-80
2022/06/09 02:27:07;;;;;;;45.17;18.20;;;13.90;99.90;;;;;;5033807;28;20445;-80
2022/06/09 02:29:33;;;;;;;50.08;21.42;;;13.90;99.90;;;;;;5034995;28;20033;-80
2022/06/09 02:31:59;;;;;;;48.17;21.42;;;13.90;99.90;;;;;;5034798;28;20453;-80
2022/06/09 02:34:25;;;;;;;47.67;19.50;;;13.90;99.90;;;;;;5034786;28;20588;-80
2022/06/09 02:36:51;;;;;;;49.13;19.98;;;13.80;99.90;;;;;;5034605;28;20041;-80
2022/06/09 02:39:16;;;;;;;54.92;20.67;;;13.80;99.90;;;;;;5034852;28;20432;-80
2022/06/09 02:41:42;;;;;;;70.65;25.05;;;13.80;99.90;;;;;;5032932;28;20473;-80
2022/06/09 02:44:08;;;;;;;70.10;27.95;;;13.80;99.90;;;;;;5034696;28;20124;-80
2022/06/09 02:46:34;;;;;;;88.57;29.83;;;13.80;99.90;;;;;;5035142;28;20117;-80
2022/06/09 02:48:59;;;;;;;98.80;29.48;;;13.80;99.90;;;;;;5034659;28;20140;-80
2022/06/09 02:51:35;;;;;;;91.55;30.13;;;13.80;99.90;;;;;;5033306;28;20038;-80
2022/06/09 02:54:04;;;;;;;80.72;26.25;;;13.90;99.90;;;;;;5033227;28;20053;-80
2022/06/09 02:56:30;;;;;;;83.93;28.40;;;13.80;99.90;;;;;;5033227;28;20488;-80
2022/06/09 02:58:57;;;;;;;74.18;27.77;;;13.90;99.90;;;;;;5034382;28;20077;-80
2022/06/09 03:01:24;;;;;;;80.13;27.35;;;13.80;99.90;;;;;;5035037;28;20116;-80
2022/06/09 03:03:50;;;;;;;74.90;27.27;;;13.80;99.90;;;;;;5034645;28;20076;-81
2022/06/09 03:06:16;;;;;;;82.38;28.00;;;13.90;99.90;;;;;;5034143;28;20504;-81
2022/06/09 03:08:42;;;;;;;74.32;27.75;;;13.80;99.90;;;;;;5034196;28;20084;-80
2022/06/09 03:11:10;;;;;;;72.43;26.85;;;13.80;99.90;;;;;;5049378;28;20045;-80
2022/06/09 03:13:37;;;;;;;68.45;23.63;;;13.80;99.90;;;;;;5032837;28;20049;-80
2022/06/09 03:16:04;;;;;;;62.83;27.05;;;13.70;99.90;;;;;;5032378;28;20049;-80
2022/06/09 03:18:32;;;;;;;70.40;31.95;;;13.70;99.90;;;;;;5032493;28;20064;-80
2022/06/09 03:20:58;;;;;;;60.45;29.15;;;13.70;99.90;;;;;;5032793;28;20049;-80
2022/06/09 03:23:24;;;;;;;75.07;29.50;;;13.70;99.90;;;;;;5032429;28;20045;-80
2022/06/09 03:25:50;;;;;;;78.20;30.48;;;13.70;99.90;;;;;;5048564;28;20057;-80
2022/06/09 03:28:16;;;;;;;70.60;28.63;;;13.70;99.90;;;;;;5031243;28;20045;-80
2022/06/09 03:30:41;;;;;;;61.47;22.77;;;13.70;99.90;;;;;;5032536;28;20128;-80
2022/06/09 03:33:07;;;;;;;59.60;24.73;;;13.70;99.90;;;;;;5032654;28;20528;-80
2022/06/09 03:35:33;;;;;;;68.95;28.17;;;13.70;99.90;;;;;;5033802;28;20108;-80
2022/06/09 03:37:59;;;;;;;69.55;26.63;;;13.70;99.90;;;;;;5032092;28;20107;-80
2022/06/09 03:40:27;;;;;;;65.35;25.92;;;13.70;99.90;;;;;;5033675;28;20052;-80
2022/06/09 03:42:53;;;;;;;52.83;21.38;;;13.70;99.90;;;;;;5033465;28;20045;-80
2022/06/09 03:45:18;;;;;;;53.42;25.92;;;13.70;99.90;;;;;;5032507;28;20102;-80
2022/06/09 03:47:44;;;;;;;50.25;24.90;;;13.70;99.90;;;;;;5032312;28;20135;-80
2022/06/09 03:50:16;;;;;;;61.80;30.02;;;13.60;99.90;;;;;;5032406;28;20049;-80
2022/06/09 03:52:42;;;;;;;68.50;32.38;;;13.60;99.90;;;;;;5031438;28;20049;-80
2022/06/09 03:55:08;;;;;;;70.63;29.63;;;13.60;99.90;;;;;;5032025;28;20037;-80
2022/06/09 03:57:34;;;;;;;61.75;25.67;;;13.60;99.90;;;;;;5033301;28;20049;-80
2022/06/09 03:59:59;;;;;;;50.80;21.45;;;13.70;99.90;;;;;;5033553;28;20053;-80
2022/06/09 04:02:25;;;;;;;50.45;20.85;;;13.60;99.90;;;;;;5033282;28;20401;-80
2022/06/09 04:04:52;;;;;;;53.80;22.45;;;13.60;99.90;;;;;;5033463;28;20049;-80
2022/06/09 04:07:18;;;;;;;62.58;29.02;;;13.60;99.90;;;;;;5033534;28;20045;-80
2022/06/09 04:09:44;;;;;;;61.47;29.85;;;13.60;99.90;;;;;;5033225;28;20519;-80
2022/06/09 04:12:10;;;;;;;64.05;29.77;;;13.70;99.90;;;;;;5033435;28;20080;-80
2022/06/09 04:14:35;;;;;;;58.47;25.20;;;13.70;99.90;;;;;;5033435;28;20045;-80
2022/06/09 04:17:01;;;;;;;66.32;26.70;;;13.70;99.90;;;;;;5033363;28;20053;-80
2022/06/09 04:19:27;;;;;;;73.60;29.65;;;13.70;99.90;;;;;;5033211;28;20123;-80
2022/06/09 04:21:53;;;;;;;68.80;28.08;;;13.70;99.90;;;;;;5033200;28;20057;-80
2022/06/09 04:24:19;;;;;;;71.40;29.10;;;13.70;99.90;;;;;;5032304;28;20049;-80
2022/06/09 04:26:45;;;;;;;60.67;26.10;;;13.60;99.90;;;;;;5031858;28;20042;-80
2022/06/09 04:29:12;;;;;;;43.60;17.45;;;13.70;99.90;;;;;;5033131;28;20400;-80
2022/06/09 04:31:40;;;;;;;45.63;18.55;;;13.70;99.90;;;;;;5032036;28;20061;-80
2022/06/09 04:34:06;;;;;;;52.85;21.20;;;13.70;99.90;;;;;;5033224;28;20038;-80
2022/06/09 04:36:32;;;;;;;66.30;25.42;;;13.70;99.90;;;;;;5031678;28;20045;-80
2022/06/09 04:38:58;;;;;;;49.92;21.15;;;13.70;99.90;;;;;;5031705;28;20057;-79
2022/06/09 04:41:24;;;;;;;61.17;27.67;;;13.80;99.90;;;;;;5031660;28;20052;-79
2022/06/09 04:43:49;;;;;;;63.65;26.92;;;13.70;99.90;;;;;;5031850;28;20103;-79
2022/06/09 04:46:18;;;;;;;42.05;18.55;;;13.70;99.90;;;;;;5031609;28;20073;-79
2022/06/09 04:48:44;;;;;;;49.35;23.15;;;13.70;99.90;;;;;;5033097;28;20041;-79
2022/06/09 04:51:11;;;;;;;57.35;27.92;;;13.70;99.90;;;;;;5031703;28;20058;-79
2022/06/09 04:53:38;;;;;;;57.22;23.02;;;13.70;99.90;;;;;;5031665;28;20477;-79
2022/06/09 04:56:04;;;;;;;64.35;22.58;;;13.70;99.90;;;;;;5032722;28;20061;-79
2022/06/09 04:58:30;;;;;;;55.90;20.00;;;13.70;99.90;;;;;;5032842;28;20041;-79
2022/06/09 05:00:55;;;;;;;52.35;20.92;;;13.70;99.90;;;;;;5032731;28;20042;-80
2022/06/09 05:03:21;;;;;;;64.82;20.25;;;13.80;99.90;;;;;;5031800;28;20469;-80
2022/06/09 05:05:48;;;;;;;65.13;22.65;;;13.80;99.90;;;;;;5034608;28;20056;-79
2022/06/09 05:08:15;;;;;;;64.10;22.67;;;13.90;99.90;;;;;;5035010;28;20056;-79
2022/06/09 05:10:43;;;;;;;67.20;23.75;;;13.90;99.90;;;;;;5035250;28;20057;-79
2022/06/09 05:13:09;;;;;;;45.45;17.08;;;13.90;99.90;;;;;;5035279;28;20192;-80
2022/06/09 05:15:37;;;;;;;60.75;21.58;;;13.90;99.90;;;;;;5036037;28;20397;-79
2022/06/09 05:18:04;;;;;;;49.42;20.25;;;13.90;99.90;;;;;;5035948;28;20543;-79
2022/06/09 05:20:30;;;;;;;51.13;19.35;;;14.00;99.90;;;;;;5035039;28;20054;-79
2022/06/09 05:22:57;;;;;;;52.20;20.52;;;14.00;99.90;;;;;;5036242;28;20048;-79
2022/06/09 05:25:23;;;;;;;54.63;22.00;;;14.00;99.90;;;;;;5034843;28;20049;-79
2022/06/09 05:27:49;;;;;;;58.20;23.58;;;14.00;99.90;;;;;;5036217;28;20048;-80
2022/06/09 05:30:19;;;;;;;64.35;23.52;;;14.00;99.90;;;;;;5036091;28;20059;-80
2022/06/09 05:32:45;;;;;;;61.40;22.55;;;14.00;99.90;;;;;;5035180;28;20060;-80
2022/06/09 05:35:11;;;;;;;64.43;24.20;;;14.00;99.90;;;;;;5036254;28;20045;-80
2022/06/09 05:46:00;;;;;;;59.10;26.05;;;14.10;99.90;;;;;;5036129;28;20141;-80
2022/06/09 05:48:27;;;;;;;62.70;29.17;;;14.10;99.90;;;;;;5034583;28;20133;-80
2022/06/09 05:50:53;;;;;;;56.05;25.52;;;14.10;99.90;;;;;;5034488;28;20038;-80
2022/06/09 05:53:19;;;;;;;50.53;22.08;;;14.10;99.90;;;;;;5035523;28;20052;-80
2022/06/09 05:55:45;;;;;;;53.55;25.05;;;14.10;99.90;;;;;;5034133;28;20042;-80
2022/06/09 05:58:11;;;;;;;62.70;29.95;;;14.20;99.90;;;;;;5034061;28;20049;-80
2022/06/09 06:00:38;;;;;;;59.78;27.42;;;14.30;99.90;;;;;;5034311;28;20139;-80
2022/06/09 06:03:04;;;;;;;54.40;24.75;;;14.30;99.90;;;;;;5034310;28;20049;-80
2022/06/09 06:08:14;;;;;;;48.05;23.27;;;14.40;99.90;;;;;;5033901;28;20461;-79
2022/06/09 06:10:40;;;;;;;49.85;23.55;;;14.40;99.90;;;;;;5033829;28;20132;-80
2022/06/09 06:13:06;;;;;;;47.97;21.98;;;14.50;99.90;;;;;;5035097;28;20051;-80
2022/06/09 06:15:32;;;;;;;42.88;21.17;;;14.50;99.90;;;;;;5050158;28;20049;-80
2022/06/09 06:18:01;;;;;;;51.10;25.15;;;14.40;99.90;;;;;;5033475;28;20049;-80
2022/06/09 06:20:26;;;;;;;43.03;20.92;;;14.40;99.90;;;;;;5035142;28;20041;-80
2022/06/09 06:22:52;;;;;;;38.95;17.67;;;14.50;99.90;;;;;;5033734;28;20176;-80
2022/06/09 06:25:18;;;;;;;40.28;16.55;;;14.40;99.90;;;;;;5034938;28;20060;-81
2022/06/09 06:27:43;;;;;;;45.05;19.15;;;14.40;99.90;;;;;;5034157;28;20038;-81
2022/06/09 06:30:10;;;;;;;41.53;20.00;;;14.40;99.90;;;;;;5034962;28;20559;-80
2022/06/09 06:32:35;;;;;;;41.60;20.90;;;14.30;99.90;;;;;;5035183;28;20123;-80
2022/06/09 06:35:01;;;;;;;35.97;16.45;;;14.40;99.90;;;;;;5033521;28;20088;-81
2022/06/09 06:37:27;;;;;;;40.40;17.70;;;14.40;99.90;;;;;;5033119;28;20091;-80
2022/06/09 06:39:52;;;;;;;35.97;16.25;;;14.50;99.90;;;;;;5034527;28;20125;-80
2022/06/09 06:42:18;;;;;;;34.42;16.95;;;14.50;99.90;;;;;;5032973;28;20056;-80
2022/06/09 06:44:43;;;;;;;37.08;16.92;;;14.60;99.90;;;;;;5044229;28;20103;-79
2022/06/09 06:47:11;;;;;;;29.75;15.27;;;14.60;99.90;;;;;;5033093;28;20507;-80
2022/06/09 06:49:37;;;;;;;36.70;16.85;;;14.60;99.90;;;;;;5033190;28;20038;-79
2022/06/09 06:52:03;;;;;;;33.75;16.48;;;14.60;99.90;;;;;;5033178;28;20588;-80
2022/06/09 06:54:29;;;;;;;30.75;16.35;;;14.80;99.90;;;;;;5033084;28;20045;-80
2022/06/09 06:56:55;;;;;;;36.63;16.08;;;15.00;99.90;;;;;;5034330;28;20072;-82
2022/06/09 06:59:21;;;;;;;27.90;15.82;;;15.20;99.90;;;;;;5033035;28;20128;-80
2022/06/09 07:01:46;;;;;;;30.55;14.75;;;15.30;99.90;;;;;;5032788;28;20417;-80
2022/06/09 07:04:12;;;;;;;28.92;14.45;;;15.40;99.90;;;;;;5032949;28;20053;-80
2022/06/09 07:06:38;;;;;;;29.58;14.02;;;15.50;99.90;;;;;;5032866;28;20042;-80
2022/06/09 07:09:03;;;;;;;27.02;13.75;;;15.60;99.90;;;;;;5034058;28;20045;-80
2022/06/09 07:11:29;;;;;;;26.20;14.52;;;15.80;99.90;;;;;;5032674;28;20045;-80
2022/06/09 07:13:55;;;;;;;23.80;13.18;;;16.00;99.90;;;;;;5032900;28;20060;-80
2022/06/09 07:16:20;;;;;;;26.38;13.25;;;16.20;99.90;;;;;;5033567;28;20050;-80
2022/06/09 07:18:46;;;;;;;25.70;11.75;;;16.20;99.90;;;;;;5032538;28;20132;-79
2022/06/09 07:21:14;;;;;;;24.73;12.07;;;16.30;99.90;;;;;;5033554;28;20516;-80
2022/06/09 07:23:39;;;;;;;28.35;12.20;;;16.50;99.90;;;;;;5033895;28;20110;-80
2022/06/09 07:26:05;;;;;;;26.85;13.38;;;16.60;99.90;;;;;;5032288;28;20493;-80
2022/06/09 07:28:31;;;;;;;28.20;13.35;;;16.60;99.90;;;;;;5033402;28;20049;-80
2022/06/09 07:30:59;;;;;;;23.95;12.50;;;16.80;99.90;;;;;;5032568;28;20072;-80
2022/06/09 07:33:32;;;;;;;28.63;14.45;;;16.90;99.90;;;;;;5033735;28;20112;-79
2022/06/09 07:35:58;;;;;;;33.72;12.40;;;16.90;99.90;;;;;;5037133;28;20036;-80
2022/06/09 07:38:26;;;;;;;25.00;11.48;;;17.10;99.90;;;;;;5051843;28;20061;-80
2022/06/09 07:40:53;;;;;;;21.77;10.43;;;17.10;99.90;;;;;;5052025;28;20081;-80
2022/06/09 07:43:20;;;;;;;25.45;8.38;;;17.30;99.90;;;;;;5053313;28;20110;-80
2022/06/09 07:45:47;;;;;;;18.05;7.45;;;17.40;99.90;;;;;;5051922;28;20094;-81
2022/06/09 07:48:13;;;;;;;16.33;7.40;;;17.50;99.90;;;;;;5048420;28;20052;-81
2022/06/09 07:50:39;;;;;;;15.38;6.95;;;17.60;99.90;;;;;;5045458;28;20045;-81
2022/06/09 07:53:05;;;;;;;15.02;7.18;;;17.70;99.90;;;;;;5053438;28;20124;-81
2022/06/09 07:55:31;;;;;;;15.82;6.88;;;17.90;99.90;;;;;;5051834;28;20113;-81
2022/06/09 07:57:56;;;;;;;13.48;5.65;;;17.90;99.90;;;;;;5053036;28;20139;-81
2022/06/09 08:00:23;;;;;;;13.27;5.97;;;18.00;99.90;;;;;;5053102;28;20037;-81
2022/06/09 08:02:50;;;;;;;13.82;5.45;;;18.10;99.90;;;;;;5051861;28;20094;-81
2022/06/09 08:05:18;;;;;;;12.52;5.35;;;18.20;99.90;;;;;;5051807;28;20081;-81
2022/06/09 08:07:44;;;;;;;15.85;5.40;;;18.40;99.90;;;;;;5051023;28;20037;-80
2022/06/09 08:10:17;;;;;;;16.02;6.00;;;18.40;99.90;;;;;;5052998;28;20047;-81
2022/06/09 08:12:47;;;;;;;18.05;4.82;;;18.40;99.90;;;;;;5051833;28;20060;-81
2022/06/09 08:15:13;;;;;;;18.52;6.38;;;18.40;99.90;;;;;;5040898;28;20049;-81
2022/06/09 08:17:38;;;;;;;13.95;5.53;;;18.50;99.90;;;;;;5031597;28;20072;-80
2022/06/09 08:20:07;;;;;;;16.08;5.03;;;18.50;99.90;;;;;;5030406;28;20048;-81
2022/06/09 08:22:33;;;;;;;15.50;4.78;;;18.50;99.90;;;;;;5032569;28;20052;-80
2022/06/09 08:24:59;;;;;;;10.25;4.80;;;18.50;99.90;;;;;;5031777;28;20508;-81
2022/06/09 08:27:25;;;;;;;12.95;5.28;;;18.60;99.90;;;;;;5032916;28;20049;-81
2022/06/09 08:29:51;;;;;;;19.15;6.45;;;18.60;99.90;;;;;;5033244;28;20041;-80
2022/06/09 08:32:17;;;;;;;15.20;4.97;;;18.70;99.90;;;;;;5031549;28;20604;-80
2022/06/09 08:34:43;;;;;;;15.15;5.50;;;18.80;99.90;;;;;;5031671;28;20056;-81
2022/06/09 08:37:08;;;;;;;18.50;5.00;;;18.80;99.90;;;;;;5031390;28;20054;-82
2022/06/09 08:39:35;;;;;;;20.10;5.47;;;18.90;99.90;;;;;;5033029;28;20080;-81
2022/06/09 08:42:12;;;;;;;16.73;5.95;;;19.00;99.90;;;;;;5036892;28;20116;-80
2022/06/09 08:44:57;;;;;;;13.48;5.63;;;19.10;99.90;;;;;;5035309;28;20080;-80
2022/06/09 08:47:45;;;;;;;17.40;5.10;;;19.30;99.90;;;;;;5035549;28;20554;-80
2022/06/09 08:50:28;;;;;;;17.45;4.95;;;19.50;99.90;;;;;;5036574;28;20049;-80
2022/06/09 08:53:05;;;;;;;15.32;4.80;;;19.60;99.90;;;;;;5036384;28;20049;-80
2022/06/09 08:55:52;;;;;;;11.50;4.70;;;19.50;99.90;;;;;;5036588;28;20045;-81
2022/06/09 08:58:41;;;;;;;16.95;5.68;;;19.50;99.90;;;;;;5035015;28;20053;-81
2022/06/09 09:01:10;;;;;;;18.75;5.03;;;19.60;99.90;;;;;;5035070;28;20046;-82
2022/06/09 09:03:45;;;;;;;15.70;4.78;;;19.60;99.90;;;;;;5036389;28;20052;-81
2022/06/09 09:06:29;;;;;;;18.83;5.20;;;19.70;99.90;;;;;;5034948;28;20077;-81
2022/06/09 09:09:08;;;;;;;19.95;4.95;;;19.70;99.90;;;;;;5034976;28;20555;-80
2022/06/09 09:11:41;;;;;;;16.80;4.75;;;19.80;99.90;;;;;;5034867;28;20052;-81
2022/06/09 09:14:14;;;;;;;18.13;4.25;;;19.90;99.90;;;;;;5034747;28;20444;-81
2022/06/09 09:16:53;;;;;;;19.65;4.85;;;19.80;99.90;;;;;;5036233;28;20049;-80
2022/06/09 09:19:45;;;;;;;16.55;4.30;;;19.80;99.90;;;;;;5034740;28;20083;-81
2022/06/09 09:22:43;;;;;;;22.58;5.65;;;19.70;99.90;;;;;;5035949;28;20417;-81
2022/06/09 09:25:20;;;;;;;19.63;5.38;;;19.80;99.90;;;;;;5034030;28;20092;-83
2022/06/09 09:28:11;;;;;;;14.00;4.13;;;19.80;99.90;;;;;;5035937;28;20048;-82
2022/06/09 09:31:00;;;;;;;25.98;6.07;;;20.00;99.90;;;;;;5034777;28;20057;-80
2022/06/09 09:33:26;;;;;;;34.25;7.03;;;20.00;99.90;;;;;;4989169;28;20049;-81
2022/06/09 09:36:01;;;;;;;16.33;4.75;;;20.00;99.90;;;;;;5052340;28;20106;-82
2022/06/09 09:38:42;;;;;;;19.90;5.97;;;20.10;99.90;;;;;;5034232;28;20136;-82
2022/06/09 09:41:33;;;;;;;16.98;5.75;;;20.10;99.90;;;;;;5035640;28;20405;-82
2022/06/09 09:44:00;;;;;;;21.17;5.43;;;20.00;99.90;;;;;;5035751;28;20045;-82
2022/06/09 09:46:31;;;;;;;19.35;4.75;;;20.10;99.90;;;;;;5035420;28;20053;-88
2022/06/09 09:48:59;;;;;;;22.77;6.05;;;20.10;99.90;;;;;;5034136;28;20489;-85
2022/06/09 09:51:38;;;;;;;21.10;5.70;;;20.10;99.90;;;;;;5033942;28;20393;-88
2022/06/09 09:54:35;;;;;;;15.93;4.75;;;20.30;99.90;;;;;;5035201;28;20408;-87
2022/06/09 09:57:19;;;;;;;11.93;5.00;;;20.20;99.90;;;;;;5033640;28;20076;-86
2022/06/09 09:59:51;;;;;;;22.13;6.15;;;20.10;99.90;;;;;;5035188;28;20052;-84
2022/06/09 10:08:40;;;;;;;19.83;5.47;;;20.30;99.90;;;;;;5033784;28;20120;-85
2022/06/09 10:14:06;;;;;;;25.48;5.68;;;20.10;99.90;;;;;;5055108;28;20109;-81
2022/06/09 10:16:33;;;;;;;20.90;6.10;;;20.10;99.90;;;;;;5054414;28;20053;-82
2022/06/09 10:19:04;;;;;;;15.55;5.00;;;20.10;99.90;;;;;;5054757;28;20056;-86
2022/06/09 10:21:55;;;;;;;21.27;5.25;;;20.30;99.90;;;;;;5033771;28;20096;-82
2022/06/09 10:24:28;;;;;;;17.55;5.47;;;20.30;99.90;;;;;;5044183;28;20037;-80
2022/06/09 10:26:56;;;;;;;20.98;5.72;;;20.40;99.90;;;;;;5054544;28;20370;-85
2022/06/09 10:29:44;;;;;;;15.55;4.93;;;20.40;99.90;;;;;;5054205;28;20535;-84
2022/06/09 10:32:24;;;;;;;16.90;4.85;;;20.00;99.90;;;;;;5052591;28;20044;-81
2022/06/09 10:34:59;;;;;;;18.90;5.65;;;20.00;99.90;;;;;;5054837;28;20049;-81
2022/06/09 10:37:34;;;;;;;17.75;4.68;;;19.80;99.90;;;;;;5052743;28;20496;-81
2022/06/09 10:40:13;;;;;;;16.58;4.68;;;19.80;99.90;;;;;;5053492;28;20400;-81
2022/06/09 10:42:57;;;;;;;15.15;4.22;;;19.90;99.90;;;;;;5052507;28;20044;-81
2022/06/09 10:45:43;;;;;;;17.40;4.25;;;19.90;99.90;;;;;;5053628;28;20056;-82
2022/06/09 10:57:14;;;;;;;13.32;3.63;;;20.10;99.90;;;;;;5053383;28;20087;-82
2022/06/09 11:00:04;;;;;;;10.18;3.85;;;20.30;99.90;;;;;;5052261;28;20071;-82
2022/06/09 11:02:33;;;;;;;12.68;3.83;;;20.20;99.90;;;;;;5052976;28;20044;-81
2022/06/09 11:04:59;;;;;;;19.27;3.88;;;20.40;99.90;;;;;;5053441;28;20045;-82
2022/06/09 11:07:40;;;;;;;18.00;4.35;;;20.30;99.90;;;;;;5052235;28;20052;-82
2022/06/09 11:10:35;;;;;;;14.23;3.92;;;20.20;99.90;;;;;;5053455;28;20120;-82
2022/06/09 11:13:06;;;;;;;19.02;4.57;;;20.00;99.90;;;;;;5043657;28;20627;-82
2022/06/09 11:16:14;;;;;;;11.82;4.13;;;20.00;99.90;;;;;;5051843;28;20041;-81
2022/06/09 11:18:53;;;;;;;10.82;3.05;;;19.90;99.90;;;;;;5053259;28;20119;-81
2022/06/09 11:21:28;;;;;;;16.30;3.90;;;20.20;99.90;;;;;;5053353;28;20151;-81
2022/06/09 11:24:11;;;;;;;14.73;3.47;;;20.20;99.90;;;;;;5053272;28;20115;-82
2022/06/09 11:27:00;;;;;;;12.98;3.15;;;20.40;99.90;;;;;;5053181;28;20044;-81
2022/06/09 11:29:43;;;;;;;10.93;3.10;;;20.50;99.90;;;;;;5051969;28;20473;-81
2022/06/09 11:32:30;;;;;;;13.20;3.20;;;20.70;99.90;;;;;;5051710;28;20083;-81
2022/06/09 11:35:31;;;;;;;14.77;3.30;;;20.80;99.90;;;;;;5051906;28;20488;-81
2022/06/09 11:38:18;;;;;;;17.73;3.73;;;20.80;99.90;;;;;;5014635;28;1095653;-82
2022/06/09 11:41:10;;;;;;;17.13;4.13;;;20.90;99.90;;;;;;5053813;28;20057;-81
2022/06/09 11:43:53;;;;;;;9.63;3.40;;;20.70;99.90;;;;;;5053527;28;20045;-81
2022/06/09 11:46:23;;;;;;;;;;;20.70;99.90;;;;;;5053796;28;20476;-81
2022/06/09 11:48:53;;;;;;;25.65;5.88;;;20.40;99.90;;;;;;5053643;28;19921;-82
2022/06/09 11:51:23;;;;;;;13.38;3.42;;;20.20;99.90;;;;;;5053652;28;20044;-81
2022/06/09 11:53:52;;;;;;;15.70;3.47;;;20.30;99.90;;;;;;5053673;28;20102;-81
2022/06/09 11:56:45;;;;;;;13.35;3.85;;;20.00;99.90;;;;;;5053368;28;20052;-81
2022/06/09 11:59:17;;;;;;;13.43;3.67;;;19.80;99.90;;;;;;5053644;28;20053;-81
2022/06/09 12:01:57;;;;;;;12.55;3.83;;;19.70;99.90;;;;;;5053619;28;20037;-81
2022/06/09 12:04:48;;;;;;;17.63;4.70;;;19.90;99.90;;;;;;5053382;28;20048;-81
2022/06/09 12:07:41;;;;;;;22.98;3.53;;;20.20;99.90;;;;;;5053177;28;20550;-81
2022/06/09 12:10:29;;;;;;;14.45;3.60;;;20.00;99.90;;;;;;5053240;28;20045;-82
2022/06/09 12:13:18;;;;;;;12.60;3.55;;;19.80;99.90;;;;;;5052162;28;20090;-81
2022/06/09 12:16:01;;;;;;;12.57;4.65;;;20.20;99.90;;;;;;5056665;28;20124;-82
2022/06/09 12:18:35;;;;;;;16.13;4.18;;;20.20;99.90;;;;;;5055947;28;20045;-82
2022/06/09 12:21:08;;;;;;;15.50;4.10;;;20.20;99.90;;;;;;5057246;28;20103;-82
2022/06/09 12:23:49;;;;;;;11.60;3.70;;;20.40;99.90;;;;;;5057361;28;20102;-81
2022/06/09 12:26:16;;;;;;;14.52;4.15;;;20.30;99.90;;;;;;5057333;28;20087;-81
2022/06/09 12:28:57;;;;;;;10.73;3.83;;;20.10;99.90;;;;;;5055888;28;20056;-82
2022/06/09 12:31:33;;;;;;;16.13;4.07;;;19.80;99.90;;;;;;5055899;28;20132;-82
2022/06/09 12:34:13;;;;;;;13.10;5.00;;;19.60;99.90;;;;;;5057205;28;20067;-81
2022/06/09 12:36:52;;;;;;;17.88;5.00;;;19.30;99.90;;;;;;5055293;28;20103;-81
2022/06/09 12:39:20;;;;;;;17.88;4.80;;;19.30;99.90;;;;;;5056657;28;20511;-82
2022/06/09 12:42:00;;;;;;;17.25;4.93;;;19.30;99.90;;;;;;5056966;28;20033;-81
2022/06/09 12:44:36;;;;;;;23.02;6.18;;;19.20;99.90;;;;;;5056952;28;20052;-81
2022/06/09 12:47:18;;;;;;;23.33;5.93;;;18.90;99.90;;;;;;5056654;28;20501;-82
2022/06/09 12:49:48;;;;;;;21.05;5.22;;;19.10;99.90;;;;;;5055394;28;20053;-81
2022/06/09 12:52:39;;;;;;;19.90;6.03;;;19.10;99.90;;;;;;5055301;28;20492;-82
2022/06/09 12:55:30;;;;;;;18.20;5.05;;;18.90;99.90;;;;;;5048351;28;20132;-81
2022/06/09 12:58:04;;;;;;;22.10;5.95;;;19.10;99.90;;;;;;5056437;28;20480;-81
2022/06/09 13:00:35;;;;;;;14.45;5.50;;;19.10;99.90;;;;;;5056466;28;20128;-81
2022/06/09 13:03:01;;;;;;;25.73;5.93;;;19.20;99.90;;;;;;5055444;28;20082;-81
2022/06/09 13:05:34;;;;;;;14.98;5.25;;;19.10;99.90;;;;;;5056319;28;20036;-81
2022/06/09 13:08:12;;;;;;;17.60;5.40;;;19.30;99.90;;;;;;5055346;28;20123;-81
2022/06/09 13:10:41;;;;;;;17.40;4.95;;;19.40;99.90;;;;;;5056490;28;20431;-81
2022/06/09 13:13:20;;;;;;;16.85;5.28;;;19.40;99.90;;;;;;5056502;28;20044;-81
2022/06/09 13:16:00;;;;;;;21.58;5.68;;;19.50;99.90;;;;;;5056153;28;20505;-81
2022/06/09 13:18:35;;;;;;;18.95;5.20;;;19.50;99.90;;;;;;5056034;28;20087;-81
2022/06/09 13:21:07;;;;;;;16.73;5.38;;;19.50;99.90;;;;;;5054895;28;20504;-81